Gettysburg, SD

14:14 CST le 05 Mars 2015 (GMT -0600)
Chamberlain | Change Station
CLOSE
Current Station
Aéroport
Location: Chamberlain,
Altitude: 1693 ft
Stations météo à proximité

Alt. 1693 ft 43.77 °N, 99.32 °W | Updated 19 minutes ago

Ciel dégagé
Ciel dégagé
32 ° F
Paraît 23 ° F
N
12
Vent Variable Vent de SSO
Gusts 20 mph

Aujourd'hui
Haut(e) -- | Bas -- ° F
--% Risque de précip.
Hier
Haut(e) -- | Bas -- ° F
Precip. -- pouce
7:11 AM 6:32 PM
Pleine lune, 100% visible
Pression 30.22 pouce
Visibilité 10.0 Miles terrestres
Nuages Ciel dégagé
Refroidissement éolien 23 ° F
Point de rosée 10 ° F
Humidité 41%
Précipitations 0.00 pouce
Profondeur de la couche neigeuse Non disponible.
UV 5 sur 12
Pollen .40 sur 12
Qualité de l'air Non disponible.
Flu Activity Non disponible.
METAR K9V9 051955Z AUTO 21010G17KT 10SM CLR 00/M12 A3022 RMK AO2 T00001120

More Conditions Fewer Conditions

Pression 30.22 pouce
Visibilité 10.0 Miles terrestres
Nuages Ciel dégagé
Refroidissement éolien 23 ° F
Point de rosée 10 ° F
Humidité 41%
Précipitations 0.00 pouce
Profondeur de la couche neigeuse Non disponible.
UV 5 sur 12
Pollen .40 sur 12
Qualité de l'air Non disponible.
Flu Activity Non disponible.
METAR K9V9 051955Z AUTO 21010G17KT 10SM CLR 00/M12 A3022 RMK AO2 T00001120

More Conditions Fewer Conditions

10-Day Weather Forecast

Almanac

Astronomie

Mar. 05, 2015 Lever Coucher
Temps réel
Crépuscule civil
Crépuscule nautique
Crépuscule astronomique
Lune
Durée de lumière visible
Longueur du jour
Tomorrow will be .
, % of the Moon is Illuminated

Extrêmes aujourd'hui

State Highs State Lows

Community

WunderPhotos

Upload Photos

1,802,938 Photos téléchargées !

WunderBlogs® & News

Nearby

Qualité de l'air

  Qualité de l'air Indice de la qualité de l'air Polluant
Not available.

Épaisseur de neige

Station Depth Altitude

Activité sismique

Ville Distance Mag. Time & Date
Minimum magnitude displayed is 2.5.

Températures des eaux côtières

Lieu Température

Stations météo à proximité